Time;durP1;ratioP1;P1;durP2;ratioP2;P2;SDS_P1;SDS_P2;PMS_P1;PMS_P2;Temp;Humidity;BMP_temperature;BMP_pressure;BME280_temperature;BME280_humidity;BME280_pressure;Samples;Min_cycle;Max_cycle;Signal;HPM_P1;HPM_P2
2023/03/16 00:00:44;;;;;;;12.80;3.38;;;;;;;;;;4952624;29;20042;-70
2023/03/16 00:03:11;;;;;;;7.75;2.80;;;;;;;;;;4954021;29;20027;-70
2023/03/16 00:05:37;;;;;;;7.20;2.15;;;;;;;;;;4953624;29;20031;-70
2023/03/16 00:08:04;;;;;;;10.98;3.42;;;;;;;;;;4953586;29;20015;-70
2023/03/16 00:10:30;;;;;;;25.55;7.63;;;;;;;;;;4953751;29;20038;-70
2023/03/16 00:12:57;;;;;;;19.23;5.93;;;;;;;;;;4953452;29;20086;-70
2023/03/16 00:15:23;;;;;;;8.80;3.42;;;;;;;;;;4953645;29;20031;-70
2023/03/16 00:17:49;;;;;;;18.23;5.95;;;;;;;;;;4936359;29;20026;-70
2023/03/16 00:20:17;;;;;;;17.25;5.78;;;;;;;;;;4953250;29;20042;-70
2023/03/16 00:22:43;;;;;;;18.75;5.07;;;;;;;;;;4953513;29;20033;-70
2023/03/16 00:25:11;;;;;;;20.60;4.40;;;;;;;;;;4953637;29;20023;-70
2023/03/16 00:27:37;;;;;;;17.35;6.05;;;;;;;;;;4953416;29;20035;-70
2023/03/16 00:30:04;;;;;;;12.43;3.67;;;;;;;;;;4952936;29;20044;-70
2023/03/16 00:32:31;;;;;;;12.73;3.38;;;;;;;;;;4955735;28;20063;-70
2023/03/16 00:34:58;;;;;;;9.43;3.45;;;;;;;;;;4956963;29;20387;-69
2023/03/16 00:37:25;;;;;;;15.75;6.72;;;;;;;;;;4938297;29;20030;-70
2023/03/16 00:39:54;;;;;;;11.63;4.40;;;;;;;;;;4937372;29;20417;-70
2023/03/16 00:42:26;;;;;;;9.73;3.90;;;;;;;;;;4937659;29;20024;-70
2023/03/16 00:44:59;;;;;;;9.95;3.20;;;;;;;;;;4937898;29;20065;-70
2023/03/16 00:47:27;;;;;;;26.67;18.58;;;;;;;;;;4937436;29;20370;-70
2023/03/16 00:49:55;;;;;;;11.02;6.88;;;;;;;;;;4937541;29;20047;-70
2023/03/16 00:52:22;;;;;;;8.73;4.43;;;;;;;;;;4937418;29;20416;-70
2023/03/16 00:54:51;;;;;;;9.27;3.45;;;;;;;;;;4937259;29;20020;-70
2023/03/16 00:57:18;;;;;;;7.65;2.40;;;;;;;;;;4937085;29;20055;-70
2023/03/16 00:59:45;;;;;;;6.20;2.50;;;;;;;;;;4937189;29;20063;-70
2023/03/16 01:02:11;;;;;;;9.05;2.42;;;;;;;;;;4937233;29;20034;-70
2023/03/16 01:04:40;;;;;;;6.63;2.20;;;;;;;;;;4937358;29;20042;-70
2023/03/16 01:07:07;;;;;;;7.68;2.10;;;;;;;;;;4937323;29;20031;-70
2023/03/16 01:09:36;;;;;;;12.38;2.10;;;;;;;;;;4936993;29;20441;-70
2023/03/16 01:12:07;;;;;;;4.68;2.00;;;;;;;;;;4936991;29;20024;-70
2023/03/16 01:14:34;;;;;;;4.68;1.73;;;;;;;;;;4936242;29;20157;-70
2023/03/16 01:17:01;;;;;;;7.72;1.95;;;;;;;;;;4936988;29;20031;-70
2023/03/16 01:19:28;;;;;;;8.32;1.98;;;;;;;;;;4936906;29;20040;-70
2023/03/16 01:21:54;;;;;;;13.32;2.17;;;;;;;;;;4936866;29;20020;-70
2023/03/16 01:24:20;;;;;;;6.93;2.47;;;;;;;;;;4936931;29;20382;-70
2023/03/16 01:26:47;;;;;;;6.28;2.33;;;;;;;;;;4936541;29;20495;-70
2023/03/16 01:29:13;;;;;;;6.20;2.58;;;;;;;;;;4936602;29;20057;-70
2023/03/16 01:31:39;;;;;;;6.32;2.22;;;;;;;;;;4954040;29;20053;-70
2023/03/16 01:34:06;;;;;;;9.35;2.35;;;;;;;;;;4955809;29;20023;-70
2023/03/16 01:36:32;;;;;;;5.25;1.90;;;;;;;;;;4955859;29;20499;-70
2023/03/16 01:38:59;;;;;;;9.38;2.20;;;;;;;;;;4955591;29;20440;-70
2023/03/16 01:41:26;;;;;;;7.80;2.03;;;;;;;;;;4955621;29;20030;-70
2023/03/16 01:43:57;;;;;;;10.30;2.10;;;;;;;;;;4955022;28;20155;-70
2023/03/16 01:46:23;;;;;;;;;;;;;;;;;;4956024;29;20037;-70
2023/03/16 01:49:04;;;;;;;6.63;2.03;;;;;;;;;;4955577;29;19911;-70
2023/03/16 01:51:42;;;;;;;5.70;2.17;;;;;;;;;;4955794;29;20090;-70
2023/03/16 01:54:15;;;;;;;8.88;2.17;;;;;;;;;;4955503;29;20381;-70
2023/03/16 01:56:45;;;;;;;6.60;2.22;;;;;;;;;;4955297;29;20038;-70
2023/03/16 01:59:13;;;;;;;4.10;1.70;;;;;;;;;;4955197;29;20050;-70
2023/03/16 02:01:39;;;;;;;7.53;2.20;;;;;;;;;;4955598;29;20082;-70
2023/03/16 02:04:21;;;;;;;8.07;2.80;;;;;;;;;;4955278;29;20033;-70
2023/03/16 02:06:48;;;;;;;8.07;2.67;;;;;;;;;;4955438;29;20023;-70
2023/03/16 02:09:15;;;;;;;6.22;1.88;;;;;;;;;;4955134;29;20039;-71
2023/03/16 02:11:42;;;;;;;8.38;2.08;;;;;;;;;;4955356;29;20033;-70
2023/03/16 02:14:10;;;;;;;6.53;1.60;;;;;;;;;;4955180;29;20031;-70
2023/03/16 02:16:36;;;;;;;9.13;1.33;;;;;;;;;;4955352;29;20027;-70
2023/03/16 02:19:03;;;;;;;10.25;1.70;;;;;;;;;;4955040;29;20037;-70
2023/03/16 02:21:32;;;;;;;4.57;1.70;;;;;;;;;;4954870;29;20031;-70
2023/03/16 02:23:59;;;;;;;5.57;2.10;;;;;;;;;;4954902;29;20037;-70
2023/03/16 02:26:30;;;;;;;6.78;1.73;;;;;;;;;;4945854;29;20035;-70
2023/03/16 02:29:10;;;;;;;6.18;1.63;;;;;;;;;;4954670;29;20522;-70
2023/03/16 02:31:37;;;;;;;7.15;1.98;;;;;;;;;;4954931;29;20035;-70
2023/03/16 02:34:03;;;;;;;4.70;1.95;;;;;;;;;;4954960;29;20023;-70
2023/03/16 02:36:30;;;;;;;7.30;2.08;;;;;;;;;;4954720;29;20027;-70
2023/03/16 02:38:56;;;;;;;5.75;1.92;;;;;;;;;;4954181;29;20415;-70
2023/03/16 02:41:22;;;;;;;6.15;2.05;;;;;;;;;;4955250;29;20031;-70
2023/03/16 02:43:57;;;;;;;6.20;2.08;;;;;;;;;;4954903;29;20039;-70
2023/03/16 02:46:26;;;;;;;5.53;1.63;;;;;;;;;;4954531;29;20018;-70
2023/03/16 02:49:01;;;;;;;3.53;1.33;;;;;;;;;;4937400;29;20031;-70
2023/03/16 02:51:28;;;;;;;7.55;1.70;;;;;;;;;;4954491;29;20033;-70
2023/03/16 02:53:55;;;;;;;6.13;1.50;;;;;;;;;;4954120;28;20057;-70
2023/03/16 02:56:21;;;;;;;7.28;1.90;;;;;;;;;;4954532;29;20023;-70
2023/03/16 02:58:48;;;;;;;6.95;2.00;;;;;;;;;;4954166;29;20047;-70
2023/03/16 03:01:14;;;;;;;6.10;1.88;;;;;;;;;;4954303;29;20023;-70
2023/03/16 03:03:42;;;;;;;6.63;1.55;;;;;;;;;;4954286;29;20513;-70
2023/03/16 03:06:09;;;;;;;7.25;1.67;;;;;;;;;;4954103;29;20492;-70
2023/03/16 03:08:36;;;;;;;4.78;1.73;;;;;;;;;;4936737;29;20031;-70
2023/03/16 03:11:02;;;;;;;5.20;2.22;;;;;;;;;;4954232;29;20031;-70
2023/03/16 03:13:30;;;;;;;8.27;1.80;;;;;;;;;;4954535;29;20024;-70
2023/03/16 03:15:56;;;;;;;9.82;1.70;;;;;;;;;;4954558;29;20095;-70
2023/03/16 03:18:24;;;;;;;4.95;1.40;;;;;;;;;;4954004;29;20027;-70
2023/03/16 03:20:50;;;;;;;6.55;2.08;;;;;;;;;;4953972;29;20028;-70
2023/03/16 03:23:16;;;;;;;6.65;1.92;;;;;;;;;;4953955;29;20441;-70
2023/03/16 03:25:44;;;;;;;5.65;1.65;;;;;;;;;;4953836;29;20488;-70
2023/03/16 03:28:10;;;;;;;9.25;2.08;;;;;;;;;;4953940;29;20031;-70
2023/03/16 03:30:36;;;;;;;5.82;1.42;;;;;;;;;;4953932;29;20047;-69
2023/03/16 03:33:03;;;;;;;7.47;2.03;;;;;;;;;;4953921;29;20027;-68
2023/03/16 03:35:30;;;;;;;7.03;1.67;;;;;;;;;;4953944;29;20510;-69
2023/03/16 03:37:56;;;;;;;6.13;1.48;;;;;;;;;;4937126;29;20027;-70
2023/03/16 03:40:23;;;;;;;6.75;1.48;;;;;;;;;;4954052;29;20097;-69
2023/03/16 03:42:50;;;;;;;5.70;1.55;;;;;;;;;;4953566;29;20035;-70
2023/03/16 03:45:17;;;;;;;5.05;1.60;;;;;;;;;;4953962;29;20031;-70
2023/03/16 03:47:43;;;;;;;9.10;1.35;;;;;;;;;;4953811;29;20030;-70
2023/03/16 03:50:11;;;;;;;5.88;1.58;;;;;;;;;;4953853;29;20037;-70
2023/03/16 03:52:37;;;;;;;8.27;1.52;;;;;;;;;;4953741;29;20020;-70
2023/03/16 03:55:04;;;;;;;8.25;1.63;;;;;;;;;;4953634;29;20039;-70
2023/03/16 03:57:30;;;;;;;6.95;2.00;;;;;;;;;;4953557;29;20015;-70
2023/03/16 03:59:57;;;;;;;6.88;1.65;;;;;;;;;;4953719;29;20046;-70
2023/03/16 04:02:23;;;;;;;8.82;1.90;;;;;;;;;;4953692;29;20023;-70
2023/03/16 04:04:49;;;;;;;5.97;1.90;;;;;;;;;;4953587;29;20024;-70
2023/03/16 04:07:16;;;;;;;5.90;1.58;;;;;;;;;;4955763;28;20032;-70
2023/03/16 04:09:42;;;;;;;4.80;1.58;;;;;;;;;;4957282;29;20031;-70
2023/03/16 04:12:10;;;;;;;3.88;1.30;;;;;;;;;;4940437;29;20031;-70
2023/03/16 04:14:37;;;;;;;10.00;1.83;;;;;;;;;;4957632;29;20027;-70
2023/03/16 04:17:03;;;;;;;8.25;1.75;;;;;;;;;;4957340;29;20019;-70
2023/03/16 04:19:30;;;;;;;6.93;2.10;;;;;;;;;;4957163;29;20035;-70
2023/03/16 04:21:56;;;;;;;4.25;1.55;;;;;;;;;;4957202;29;20023;-70
2023/03/16 04:24:22;;;;;;;4.47;1.35;;;;;;;;;;4957407;29;20180;-69
2023/03/16 04:26:49;;;;;;;4.82;1.20;;;;;;;;;;4957052;29;20030;-70
2023/03/16 04:29:18;;;;;;;9.57;1.90;;;;;;;;;;4957061;29;20039;-70
2023/03/16 04:31:45;;;;;;;4.88;1.65;;;;;;;;;;4956879;29;20480;-70
2023/03/16 04:34:12;;;;;;;5.13;2.13;;;;;;;;;;4957268;29;20077;-70
2023/03/16 04:36:38;;;;;;;8.45;1.92;;;;;;;;;;4957322;29;20032;-70
2023/03/16 04:39:05;;;;;;;8.23;2.00;;;;;;;;;;4956553;29;20488;-70
2023/03/16 04:41:31;;;;;;;9.80;2.33;;;;;;;;;;4957066;29;20035;-70
2023/03/16 04:43:58;;;;;;;4.15;1.52;;;;;;;;;;4957084;29;20027;-70
2023/03/16 04:46:25;;;;;;;6.18;1.63;;;;;;;;;;4956798;29;20035;-70
2023/03/16 04:48:52;;;;;;;6.13;1.65;;;;;;;;;;4956231;29;20024;-70
2023/03/16 04:51:18;;;;;;;5.13;1.83;;;;;;;;;;4957064;29;20041;-70
2023/03/16 04:53:44;;;;;;;6.93;1.45;;;;;;;;;;4956745;29;20735;-70
2023/03/16 04:56:17;;;;;;;6.28;1.60;;;;;;;;;;4956508;29;20332;-70
2023/03/16 04:58:47;;;;;;;5.20;1.58;;;;;;;;;;4956358;29;20045;-70
2023/03/16 05:01:14;;;;;;;4.20;1.60;;;;;;;;;;4956555;29;20030;-70
2023/03/16 05:03:40;;;;;;;4.78;1.67;;;;;;;;;;4956121;29;20027;-70
2023/03/16 05:06:07;;;;;;;5.20;1.48;;;;;;;;;;4956723;29;20027;-70
2023/03/16 05:08:33;;;;;;;4.60;1.48;;;;;;;;;;4956504;29;20027;-70
2023/03/16 05:10:59;;;;;;;5.28;1.67;;;;;;;;;;4956186;29;20024;-70
2023/03/16 05:13:25;;;;;;;5.32;2.00;;;;;;;;;;4956455;29;20037;-70
2023/03/16 05:15:55;;;;;;;8.90;2.05;;;;;;;;;;4956253;29;20034;-70
2023/03/16 05:18:21;;;;;;;10.32;4.30;;;;;;;;;;4955903;28;20039;-70
2023/03/16 05:20:54;;;;;;;5.85;4.13;;;;;;;;;;4955960;29;20033;-70
2023/03/16 05:23:21;;;;;;;9.38;3.17;;;;;;;;;;4956413;29;20070;-70
2023/03/16 05:25:48;;;;;;;8.32;2.20;;;;;;;;;;4956352;29;20026;-70
2023/03/16 05:28:15;;;;;;;6.30;2.08;;;;;;;;;;4955808;29;20027;-70
2023/03/16 05:30:44;;;;;;;6.45;1.55;;;;;;;;;;4955760;29;20055;-70
2023/03/16 05:33:10;;;;;;;4.82;1.58;;;;;;;;;;4955702;29;20395;-69
2023/03/16 05:35:37;;;;;;;5.88;1.80;;;;;;;;;;4938549;29;20506;-70
2023/03/16 05:38:03;;;;;;;4.72;1.50;;;;;;;;;;4956162;29;20167;-70
2023/03/16 05:40:30;;;;;;;6.13;1.75;;;;;;;;;;4955631;29;20031;-70
2023/03/16 05:42:59;;;;;;;5.57;1.77;;;;;;;;;;4955689;29;20514;-70
2023/03/16 05:45:25;;;;;;;7.65;2.10;;;;;;;;;;4955761;29;20506;-70
2023/03/16 05:47:52;;;;;;;6.70;2.05;;;;;;;;;;4955500;29;20089;-70
2023/03/16 05:50:19;;;;;;;5.68;2.25;;;;;;;;;;4938379;29;20033;-70
2023/03/16 05:52:46;;;;;;;7.13;1.90;;;;;;;;;;4955284;29;20028;-69
2023/03/16 05:55:13;;;;;;;8.00;2.50;;;;;;;;;;4955580;29;20436;-70
2023/03/16 05:57:40;;;;;;;6.47;1.75;;;;;;;;;;4955393;29;20496;-70
2023/03/16 06:00:13;;;;;;;5.28;1.75;;;;;;;;;;4955509;29;20038;-70
2023/03/16 06:02:40;;;;;;;11.90;3.05;;;;;;;;;;4954142;29;20031;-70
2023/03/16 06:05:06;;;;;;;7.35;1.85;;;;;;;;;;4955385;29;20539;-70
2023/03/16 06:07:33;;;;;;;8.57;1.92;;;;;;;;;;4954967;29;20038;-70
2023/03/16 06:09:59;;;;;;;5.95;1.98;;;;;;;;;;4938251;29;20515;-70
2023/03/16 06:12:26;;;;;;;11.93;2.80;;;;;;;;;;4955352;29;20030;-70
2023/03/16 06:14:52;;;;;;;6.38;1.80;;;;;;;;;;4954974;29;20027;-70
2023/03/16 06:17:18;;;;;;;5.15;2.00;;;;;;;;;;4954852;29;20499;-70
2023/03/16 06:19:45;;;;;;;14.57;5.93;;;;;;;;;;4953981;28;20073;-70
2023/03/16 06:22:11;;;;;;;13.75;4.90;;;;;;;;;;4955043;29;20030;-70
2023/03/16 06:24:37;;;;;;;12.20;4.95;;;;;;;;;;4955241;29;20132;-70
2023/03/16 06:27:04;;;;;;;15.90;8.23;;;;;;;;;;4953583;29;20484;-69
2023/03/16 06:29:30;;;;;;;6.45;2.58;;;;;;;;;;4954231;28;20047;-70
2023/03/16 06:31:56;;;;;;;5.80;3.83;;;;;;;;;;4954668;29;20023;-70
2023/03/16 06:34:23;;;;;;;8.05;1.85;;;;;;;;;;4954929;29;20045;-70
2023/03/16 06:36:50;;;;;;;7.15;1.90;;;;;;;;;;4954483;29;20499;-70
2023/03/16 06:39:16;;;;;;;7.40;2.40;;;;;;;;;;4954936;29;20042;-70
2023/03/16 06:41:43;;;;;;;8.82;2.47;;;;;;;;;;4953522;29;20510;-69
2023/03/16 06:44:10;;;;;;;5.82;2.22;;;;;;;;;;4954879;29;20023;-70
2023/03/16 06:46:37;;;;;;;6.80;1.90;;;;;;;;;;4954431;29;20590;-70
2023/03/16 06:49:03;;;;;;;4.88;1.58;;;;;;;;;;4954565;29;20031;-70
2023/03/16 06:51:30;;;;;;;6.80;1.92;;;;;;;;;;4954273;29;20027;-69
2023/03/16 06:53:57;;;;;;;6.30;1.80;;;;;;;;;;4954638;29;20372;-70
2023/03/16 06:56:24;;;;;;;8.73;1.70;;;;;;;;;;4954383;29;20029;-70
2023/03/16 06:58:51;;;;;;;7.15;1.88;;;;;;;;;;4953909;29;20027;-70
2023/03/16 07:01:17;;;;;;;11.00;2.13;;;;;;;;;;4954443;29;20039;-71
2023/03/16 07:03:43;;;;;;;7.50;2.50;;;;;;;;;;4954206;29;20031;-70
2023/03/16 07:06:11;;;;;;;4.53;1.73;;;;;;;;;;4954480;29;20028;-70
2023/03/16 07:08:37;;;;;;;7.32;1.88;;;;;;;;;;4954276;29;20022;-70
2023/03/16 07:11:03;;;;;;;6.03;1.60;;;;;;;;;;4954183;29;20031;-70
2023/03/16 07:13:29;;;;;;;4.57;2.13;;;;;;;;;;4937014;29;20023;-70
2023/03/16 07:15:56;;;;;;;5.07;1.73;;;;;;;;;;4953805;29;20027;-70
2023/03/16 07:18:24;;;;;;;6.15;1.90;;;;;;;;;;4953836;29;20035;-70
2023/03/16 07:20:52;;;;;;;4.95;1.80;;;;;;;;;;4953123;29;20066;-69
2023/03/16 07:23:19;;;;;;;6.68;1.92;;;;;;;;;;4954091;29;20042;-70
2023/03/16 07:25:45;;;;;;;8.88;1.83;;;;;;;;;;4953211;29;20028;-70
2023/03/16 07:28:11;;;;;;;8.52;2.00;;;;;;;;;;4949664;29;20031;-70
2023/03/16 07:30:38;;;;;;;6.47;1.70;;;;;;;;;;4941826;29;20043;-70
2023/03/16 07:33:04;;;;;;;8.60;2.13;;;;;;;;;;4938776;29;20098;-70
2023/03/16 07:35:31;;;;;;;8.50;1.88;;;;;;;;;;4933788;29;20028;-70
2023/03/16 07:37:57;;;;;;;8.65;2.10;;;;;;;;;;4934498;29;20032;-70
2023/03/16 07:40:23;;;;;;;6.50;1.60;;;;;;;;;;4934519;29;20051;-70
2023/03/16 07:42:50;;;;;;;5.18;1.50;;;;;;;;;;4937524;29;20027;-70
2023/03/16 07:45:17;;;;;;;6.00;1.65;;;;;;;;;;4938576;29;20020;-70
2023/03/16 07:47:43;;;;;;;4.60;1.85;;;;;;;;;;4938669;29;20114;-70
2023/03/16 07:50:12;;;;;;;5.57;2.00;;;;;;;;;;4938564;29;20015;-71
2023/03/16 07:52:39;;;;;;;9.15;2.42;;;;;;;;;;4938578;29;20035;-70
2023/03/16 07:55:06;;;;;;;10.82;2.67;;;;;;;;;;4938242;29;20468;-70
2023/03/16 07:57:32;;;;;;;7.25;2.15;;;;;;;;;;4938062;29;20447;-71
2023/03/16 07:59:58;;;;;;;5.65;1.75;;;;;;;;;;4938358;29;20070;-71
2023/03/16 08:02:25;;;;;;;6.07;1.52;;;;;;;;;;4938492;29;20086;-70
2023/03/16 08:04:51;;;;;;;7.20;1.42;;;;;;;;;;4938095;29;20032;-70
2023/03/16 08:07:17;;;;;;;3.97;1.42;;;;;;;;;;4938177;29;20045;-70
2023/03/16 08:09:44;;;;;;;5.93;1.70;;;;;;;;;;4937892;29;20324;-71
2023/03/16 08:12:10;;;;;;;4.60;1.90;;;;;;;;;;4937740;29;20024;-71
2023/03/16 08:14:37;;;;;;;4.05;1.55;;;;;;;;;;4937919;29;20546;-71
2023/03/16 08:17:06;;;;;;;3.65;1.60;;;;;;;;;;4936699;29;20464;-69
2023/03/16 08:19:33;;;;;;;5.57;1.70;;;;;;;;;;4918422;29;20040;-69
2023/03/16 08:22:02;;;;;;;4.32;1.92;;;;;;;;;;4936736;29;20027;-69
2023/03/16 08:24:29;;;;;;;5.82;1.50;;;;;;;;;;4936710;29;20027;-69
2023/03/16 08:26:56;;;;;;;4.65;1.30;;;;;;;;;;4936722;29;20023;-69
2023/03/16 08:29:23;;;;;;;3.90;1.40;;;;;;;;;;4936809;29;20039;-69
2023/03/16 08:31:52;;;;;;;3.45;1.65;;;;;;;;;;4955202;29;20404;-69
2023/03/16 08:34:18;;;;;;;3.30;1.40;;;;;;;;;;4955734;29;20142;-68
2023/03/16 08:36:45;;;;;;;7.05;1.90;;;;;;;;;;4944065;29;20448;-69
2023/03/16 08:39:11;;;;;;;3.35;1.58;;;;;;;;;;4935320;29;20046;-68
2023/03/16 08:41:39;;;;;;;3.05;1.38;;;;;;;;;;4936349;29;20035;-69
2023/03/16 08:44:06;;;;;;;2.88;1.60;;;;;;;;;;4936804;29;20045;-68
2023/03/16 08:46:33;;;;;;;2.40;1.50;;;;;;;;;;4936875;29;20023;-69
2023/03/16 08:49:00;;;;;;;7.20;1.83;;;;;;;;;;4936709;29;20034;-69
2023/03/16 08:51:28;;;;;;;5.45;2.10;;;;;;;;;;4936430;29;20493;-69
2023/03/16 08:53:54;;;;;;;9.52;2.13;;;;;;;;;;4935888;29;20459;-69
2023/03/16 08:56:21;;;;;;;5.40;1.92;;;;;;;;;;4936031;29;20031;-69
2023/03/16 08:58:47;;;;;;;4.53;1.35;;;;;;;;;;4934976;29;20043;-69
2023/03/16 09:01:16;;;;;;;2.90;1.38;;;;;;;;;;4936635;29;20035;-69
2023/03/16 09:03:45;;;;;;;5.72;1.77;;;;;;;;;;4936177;29;20031;-69
2023/03/16 09:06:12;;;;;;;3.22;1.40;;;;;;;;;;4936238;29;20404;-69
2023/03/16 09:08:39;;;;;;;3.53;1.77;;;;;;;;;;4935946;29;20034;-68
2023/03/16 09:11:11;;;;;;;3.65;1.40;;;;;;;;;;4935274;29;20024;-69
2023/03/16 09:13:39;;;;;;;2.15;1.23;;;;;;;;;;4918763;29;20491;-69
2023/03/16 09:16:06;;;;;;;5.60;1.50;;;;;;;;;;4935894;29;20050;-69
2023/03/16 09:18:34;;;;;;;2.63;1.33;;;;;;;;;;4936110;29;20031;-69
2023/03/16 09:21:01;;;;;;;2.47;1.45;;;;;;;;;;4934654;29;20043;-69
2023/03/16 09:23:30;;;;;;;4.35;1.40;;;;;;;;;;4936040;29;20078;-69
2023/03/16 09:26:04;;;;;;;4.22;1.30;;;;;;;;;;4935866;29;20098;-69
2023/03/16 09:28:30;;;;;;;4.57;1.42;;;;;;;;;;4935737;29;20028;-69
2023/03/16 09:30:57;;;;;;;3.47;1.60;;;;;;;;;;4947050;29;20047;-69
2023/03/16 09:33:24;;;;;;;5.03;2.05;;;;;;;;;;4953439;29;20032;-69
2023/03/16 09:35:51;;;;;;;5.03;1.73;;;;;;;;;;4954734;29;20039;-68
2023/03/16 09:38:18;;;;;;;4.55;2.20;;;;;;;;;;4954500;29;20090;-68
2023/03/16 09:40:47;;;;;;;5.30;1.95;;;;;;;;;;4954346;29;20042;-69
2023/03/16 09:43:17;;;;;;;5.47;1.85;;;;;;;;;;4954797;29;20023;-69
2023/03/16 09:45:56;;;;;;;4.88;2.25;;;;;;;;;;4937346;29;20037;-69
2023/03/16 09:48:24;;;;;;;3.00;1.67;;;;;;;;;;4954347;29;20035;-69
2023/03/16 09:50:51;;;;;;;6.55;1.85;;;;;;;;;;4954630;29;20033;-68
2023/03/16 09:53:20;;;;;;;4.82;2.20;;;;;;;;;;4954272;29;20027;-69
2023/03/16 09:55:50;;;;;;;6.35;1.88;;;;;;;;;;4954483;29;20031;-68
2023/03/16 09:58:19;;;;;;;5.80;1.73;;;;;;;;;;4954333;29;20023;-69
2023/03/16 10:00:54;;;;;;;3.30;1.80;;;;;;;;;;4954099;29;20089;-68
2023/03/16 10:03:21;;;;;;;3.83;1.40;;;;;;;;;;4954011;28;20024;-68
2023/03/16 10:05:49;;;;;;;3.75;1.30;;;;;;;;;;4953724;29;20518;-68
2023/03/16 10:08:21;;;;;;;2.10;1.02;;;;;;;;;;4953869;29;20023;-68
2023/03/16 10:10:59;;;;;;;10.77;1.00;;;;;;;;;;4953543;29;20035;-68
2023/03/16 10:13:31;;;;;;;2.10;1.25;;;;;;;;;;4941716;29;20035;-69
2023/03/16 10:15:59;;;;;;;2.97;0.80;;;;;;;;;;4934348;29;20396;-68
2023/03/16 10:18:28;;;;;;;7.30;1.10;;;;;;;;;;4934675;29;20050;-68
2023/03/16 10:20:54;;;;;;;2.05;0.82;;;;;;;;;;4934569;29;20031;-68
2023/03/16 10:23:23;;;;;;;2.25;0.90;;;;;;;;;;4934410;29;20408;-68
2023/03/16 10:25:51;;;;;;;3.15;1.00;;;;;;;;;;4934564;29;20047;-68
2023/03/16 10:28:21;;;;;;;1.67;0.88;;;;;;;;;;4934733;29;20019;-69
2023/03/16 10:30:49;;;;;;;1.33;0.80;;;;;;;;;;4944279;29;20051;-69
2023/03/16 10:33:23;;;;;;;1.60;0.80;;;;;;;;;;4953618;29;20034;-68
2023/03/16 10:36:09;;;;;;;3.58;0.60;;;;;;;;;;4953419;29;20030;-68
2023/03/16 10:38:50;;;;;;;1.70;0.70;;;;;;;;;;4953259;29;20025;-69
2023/03/16 10:41:20;;;;;;;2.60;0.73;;;;;;;;;;4953330;29;20038;-69
2023/03/16 10:43:48;;;;;;;4.37;1.00;;;;;;;;;;4952451;29;20038;-68
2023/03/16 10:46:14;;;;;;;2.63;0.90;;;;;;;;;;4951721;29;20269;-69
2023/03/16 10:48:41;;;;;;;3.47;0.80;;;;;;;;;;4953599;29;20030;-69
2023/03/16 10:51:11;;;;;;;1.15;0.68;;;;;;;;;;4953372;29;20092;-68
2023/03/16 10:53:40;;;;;;;5.38;1.15;;;;;;;;;;4953308;29;20391;-68
2023/03/16 10:56:19;;;;;;;1.15;0.80;;;;;;;;;;4953137;29;20407;-68
2023/03/16 10:58:45;;;;;;;5.22;0.95;;;;;;;;;;4953222;29;20085;-68
2023/03/16 11:01:20;;;;;;;4.40;0.90;;;;;;;;;;4953566;29;20023;-68
2023/03/16 11:03:52;;;;;;;1.42;0.80;;;;;;;;;;4953046;29;20030;-68
2023/03/16 11:06:29;;;;;;;3.28;1.00;;;;;;;;;;4952895;29;20427;-68
2023/03/16 11:09:04;;;;;;;1.15;0.80;;;;;;;;;;4953279;29;20023;-68
2023/03/16 11:11:31;;;;;;;1.50;0.82;;;;;;;;;;4952836;29;20023;-68
2023/03/16 11:13:59;;;;;;;2.55;0.93;;;;;;;;;;4936214;29;20035;-69
2023/03/16 11:16:35;;;;;;;1.05;0.80;;;;;;;;;;4932391;29;20432;-69
2023/03/16 11:19:21;;;;;;;1.10;0.70;;;;;;;;;;4933860;29;20087;-69
2023/03/16 11:21:53;;;;;;;1.38;0.88;;;;;;;;;;4933412;29;20038;-70
2023/03/16 11:24:32;;;;;;;1.98;0.82;;;;;;;;;;4933875;29;20023;-69
2023/03/16 11:27:00;;;;;;;2.17;0.77;;;;;;;;;;4933948;29;20032;-69
2023/03/16 11:29:26;;;;;;;2.45;0.82;;;;;;;;;;4933692;29;20050;-69
2023/03/16 11:31:57;;;;;;;2.03;1.10;;;;;;;;;;4953498;29;20265;-69
2023/03/16 11:34:30;;;;;;;3.83;1.10;;;;;;;;;;4952015;29;20027;-69
2023/03/16 11:37:09;;;;;;;1.17;0.85;;;;;;;;;;4952485;29;20066;-69
2023/03/16 11:39:36;;;;;;;1.25;0.88;;;;;;;;;;4952546;29;20047;-69
2023/03/16 11:42:41;;;;;;;2.30;0.70;;;;;;;;;;4952623;29;20020;-70
2023/03/16 11:45:21;;;;;;;2.50;0.90;;;;;;;;;;4912029;29;20060;-68
2023/03/16 11:48:00;;;;;;;1.45;0.77;;;;;;;;;;4912129;29;20569;-69
2023/03/16 11:50:56;;;;;;;1.25;0.70;;;;;;;;;;4911945;29;20044;-69
2023/03/16 11:53:31;;;;;;;2.22;0.98;;;;;;;;;;4900652;29;20042;-69
2023/03/16 11:56:03;;;;;;;1.75;0.70;;;;;;;;;;4912350;29;20040;-69
2023/03/16 11:58:37;;;;;;;2.60;0.98;;;;;;;;;;4912435;29;20044;-68
2023/03/16 12:01:06;;;;;;;3.92;0.80;;;;;;;;;;4912139;29;20048;-68
2023/03/16 12:03:35;;;;;;;1.35;0.70;;;;;;;;;;4912089;29;20040;-69
2023/03/16 12:06:19;;;;;;;2.72;0.90;;;;;;;;;;4912042;29;20036;-69
2023/03/16 12:08:47;;;;;;;3.78;0.77;;;;;;;;;;4912144;29;20052;-69
2023/03/16 12:11:21;;;;;;;3.25;0.90;;;;;;;;;;4912567;29;20032;-68
2023/03/16 12:14:10;;;;;;;1.65;0.90;;;;;;;;;;4896712;29;20409;-68
2023/03/16 12:16:56;;;;;;;3.80;1.05;;;;;;;;;;4918360;29;20523;-68
2023/03/16 12:19:26;;;;;;;1.88;0.85;;;;;;;;;;4933092;29;20030;-69
2023/03/16 12:22:00;;;;;;;5.88;0.98;;;;;;;;;;4933216;29;20032;-69
2023/03/16 12:24:28;;;;;;;2.35;0.88;;;;;;;;;;4933343;29;20511;-68
2023/03/16 12:26:56;;;;;;;1.75;0.90;;;;;;;;;;4933161;29;20441;-69
2023/03/16 12:29:29;;;;;;;2.60;1.10;;;;;;;;;;4936810;29;20058;-69
2023/03/16 12:32:03;;;;;;;1.80;1.10;;;;;;;;;;4918029;29;20036;-69
2023/03/16 12:34:33;;;;;;;3.72;1.30;;;;;;;;;;4917599;29;20032;-69
2023/03/16 12:37:11;;;;;;;1.23;0.90;;;;;;;;;;4932274;29;20071;-68
2023/03/16 12:40:06;;;;;;;2.75;1.00;;;;;;;;;;4936867;29;20031;-69
2023/03/16 12:42:39;;;;;;;1.83;1.08;;;;;;;;;;4936581;29;20388;-69
2023/03/16 12:45:05;;;;;;;2.30;0.98;;;;;;;;;;4936473;29;20034;-68
2023/03/16 12:47:38;;;;;;;2.03;0.88;;;;;;;;;;4936350;29;20043;-69
2023/03/16 12:50:06;;;;;;;4.95;1.13;;;;;;;;;;4935607;29;20500;-69
2023/03/16 12:52:40;;;;;;;2.13;1.10;;;;;;;;;;4936430;29;20501;-69
2023/03/16 12:55:12;;;;;;;2.70;1.10;;;;;;;;;;4936434;29;20028;-69
2023/03/16 12:57:40;;;;;;;2.55;1.25;;;;;;;;;;4936202;29;20407;-69
2023/03/16 13:00:08;;;;;;;5.18;1.17;;;;;;;;;;4936227;29;20039;-70
2023/03/16 13:02:36;;;;;;;2.70;1.17;;;;;;;;;;4934289;29;20036;-69
2023/03/16 13:05:10;;;;;;;2.53;1.20;;;;;;;;;;4936110;29;20035;-68
2023/03/16 13:07:38;;;;;;;4.00;1.02;;;;;;;;;;4936201;29;20030;-67
2023/03/16 13:10:13;;;;;;;3.38;1.17;;;;;;;;;;4934610;29;20032;-69
2023/03/16 13:12:43;;;;;;;7.78;1.48;;;;;;;;;;4935758;29;20028;-68
2023/03/16 13:15:24;;;;;;;3.80;1.20;;;;;;;;;;4934885;29;20032;-69
2023/03/16 13:18:03;;;;;;;2.97;1.40;;;;;;;;;;4935602;29;20032;-69
2023/03/16 13:20:30;;;;;;;4.38;1.20;;;;;;;;;;4935944;29;20385;-69
2023/03/16 13:23:07;;;;;;;3.03;1.13;;;;;;;;;;4934788;29;20032;-69
2023/03/16 13:25:41;;;;;;;3.80;1.15;;;;;;;;;;4934545;29;20039;-69
2023/03/16 13:28:16;;;;;;;3.97;1.10;;;;;;;;;;4935479;29;20501;-69
2023/03/16 13:30:47;;;;;;;1.98;1.00;;;;;;;;;;4948876;29;20531;-69
2023/03/16 13:33:25;;;;;;;4.25;1.27;;;;;;;;;;4954745;29;20031;-69
2023/03/16 13:35:52;;;;;;;4.70;1.20;;;;;;;;;;4954788;29;20020;-68
2023/03/16 13:38:21;;;;;;;3.75;1.25;;;;;;;;;;4954621;28;20492;-68
2023/03/16 13:40:49;;;;;;;4.82;1.48;;;;;;;;;;4954427;29;20411;-69
2023/03/16 13:43:16;;;;;;;4.47;1.45;;;;;;;;;;4954670;29;20046;-69
2023/03/16 13:45:43;;;;;;;7.18;1.60;;;;;;;;;;4954363;29;20027;-69
2023/03/16 13:48:16;;;;;;;2.40;1.00;;;;;;;;;;4954499;29;20031;-68
2023/03/16 13:50:43;;;;;;;4.68;1.35;;;;;;;;;;4954451;29;20035;-69
2023/03/16 13:53:13;;;;;;;2.10;1.05;;;;;;;;;;4954438;29;20027;-68
2023/03/16 13:55:40;;;;;;;4.17;1.37;;;;;;;;;;4954149;29;20031;-69
2023/03/16 13:58:15;;;;;;;3.00;1.38;;;;;;;;;;4954247;29;20023;-69
2023/03/16 14:00:44;;;;;;;2.70;1.05;;;;;;;;;;4953904;29;20526;-69
2023/03/16 14:03:20;;;;;;;3.47;1.10;;;;;;;;;;4954458;29;20023;-68
2023/03/16 14:05:47;;;;;;;3.95;1.42;;;;;;;;;;4953378;29;20041;-69
2023/03/16 14:08:17;;;;;;;6.65;1.17;;;;;;;;;;4953982;29;20026;-68
2023/03/16 14:10:44;;;;;;;2.50;1.00;;;;;;;;;;4954021;29;20031;-69
2023/03/16 14:13:24;;;;;;;4.00;1.10;;;;;;;;;;4943511;29;20030;-68
2023/03/16 14:15:53;;;;;;;3.70;1.08;;;;;;;;;;4934570;29;20416;-68
2023/03/16 14:18:22;;;;;;;5.35;1.15;;;;;;;;;;4934609;29;20483;-68
2023/03/16 14:20:52;;;;;;;5.07;1.08;;;;;;;;;;4934506;29;20046;-68
2023/03/16 14:23:23;;;;;;;2.67;1.00;;;;;;;;;;4934275;29;20016;-68
2023/03/16 14:25:49;;;;;;;;;;;;;;;;;;4935390;29;20353;-68
2023/03/16 14:28:16;;;;;;;3.30;1.20;;;;;;;;;;4934806;29;19933;-68
2023/03/16 14:30:53;;;;;;;2.90;0.90;;;;;;;;;;4943983;29;20047;-69
2023/03/16 14:33:25;;;;;;;6.90;1.20;;;;;;;;;;4953580;29;20047;-68
2023/03/16 14:35:55;;;;;;;2.25;1.23;;;;;;;;;;4953567;29;20023;-68
2023/03/16 14:38:28;;;;;;;2.83;1.10;;;;;;;;;;4953633;29;20037;-69
2023/03/16 14:40:58;;;;;;;5.28;1.10;;;;;;;;;;4953357;29;20488;-68
2023/03/16 14:43:30;;;;;;;7.53;1.30;;;;;;;;;;4953434;29;20023;-68
2023/03/16 14:45:56;;;;;;;4.07;1.02;;;;;;;;;;4953315;29;20090;-68
2023/03/16 14:48:23;;;;;;;4.47;1.00;;;;;;;;;;4952879;29;20023;-68
2023/03/16 14:50:53;;;;;;;3.63;1.17;;;;;;;;;;4952798;28;20523;-68
2023/03/16 14:53:20;;;;;;;2.47;0.80;;;;;;;;;;4953474;29;20403;-68